sensor_id;sensor_type;location;lat;lon;timestamp;pressure;altitude;pressure_sealevel;temperature;humidity
59417;BME280;45222;52.458;20.914;2023-02-15T00:01:26;102505.44;;;0.86;88.53
59417;BME280;45222;52.458;20.914;2023-02-15T00:05:12;102501.27;;;0.94;88.66
59417;BME280;45222;52.458;20.914;2023-02-15T00:08:57;102503.45;;;0.97;88.85
59417;BME280;45222;52.458;20.914;2023-02-15T00:12:43;102497.95;;;1.01;89.16
59417;BME280;45222;52.458;20.914;2023-02-15T00:16:29;102493.49;;;1.05;88.75
59417;BME280;45222;52.458;20.914;2023-02-15T00:20:14;102491.10;;;1.07;88.55
59417;BME280;45222;52.458;20.914;2023-02-15T00:24:04;102487.94;;;1.07;88.36
59417;BME280;45222;52.458;20.914;2023-02-15T00:27:50;102488.27;;;1.07;88.61
59417;BME280;45222;52.458;20.914;2023-02-15T00:31:36;102488.08;;;1.13;88.80
59417;BME280;45222;52.458;20.914;2023-02-15T00:35:21;102484.35;;;1.19;88.65
59417;BME280;45222;52.458;20.914;2023-02-15T00:39:07;102483.59;;;1.23;88.68
59417;BME280;45222;52.458;20.914;2023-02-15T00:42:52;102483.04;;;1.29;88.52
59417;BME280;45222;52.458;20.914;2023-02-15T00:46:38;102481.31;;;1.30;88.68
59417;BME280;45222;52.458;20.914;2023-02-15T00:50:23;102481.84;;;1.38;88.93
59417;BME280;45222;52.458;20.914;2023-02-15T00:54:08;102476.25;;;1.46;88.83
59417;BME280;45222;52.458;20.914;2023-02-15T00:57:53;102473.09;;;1.54;88.75
59417;BME280;45222;52.458;20.914;2023-02-15T01:01:39;102471.23;;;1.57;88.34
59417;BME280;45222;52.458;20.914;2023-02-15T01:05:24;102467.13;;;1.54;88.11
59417;BME280;45222;52.458;20.914;2023-02-15T01:09:09;102464.73;;;1.56;88.18
59417;BME280;45222;52.458;20.914;2023-02-15T01:12:55;102465.78;;;1.57;88.09
59417;BME280;45222;52.458;20.914;2023-02-15T01:16:40;102464.76;;;1.57;88.29
59417;BME280;45222;52.458;20.914;2023-02-15T01:20:27;102461.56;;;1.56;88.24
59417;BME280;45222;52.458;20.914;2023-02-15T01:24:14;102457.98;;;1.53;88.07
59417;BME280;45222;52.458;20.914;2023-02-15T01:27:59;102453.55;;;1.50;88.20
59417;BME280;45222;52.458;20.914;2023-02-15T01:31:45;102455.45;;;1.50;88.22
59417;BME280;45222;52.458;20.914;2023-02-15T01:35:30;102448.99;;;1.51;88.22
59417;BME280;45222;52.458;20.914;2023-02-15T01:39:15;102446.64;;;1.55;88.49
59417;BME280;45222;52.458;20.914;2023-02-15T01:43:01;102447.74;;;1.57;88.69
59417;BME280;45222;52.458;20.914;2023-02-15T01:46:51;102444.38;;;1.64;89.07
59417;BME280;45222;52.458;20.914;2023-02-15T01:50:39;102443.21;;;1.67;88.49
59417;BME280;45222;52.458;20.914;2023-02-15T01:54:29;102442.50;;;1.67;88.25
59417;BME280;45222;52.458;20.914;2023-02-15T01:58:16;102445.71;;;1.69;88.51
59417;BME280;45222;52.458;20.914;2023-02-15T02:02:02;102441.46;;;1.76;88.73
59417;BME280;45222;52.458;20.914;2023-02-15T02:05:48;102440.27;;;1.77;88.49
59417;BME280;45222;52.458;20.914;2023-02-15T02:09:35;102436.33;;;1.73;88.36
59417;BME280;45222;52.458;20.914;2023-02-15T02:13:20;102436.89;;;1.74;88.50
59417;BME280;45222;52.458;20.914;2023-02-15T02:17:12;102434.81;;;1.77;88.40
59417;BME280;45222;52.458;20.914;2023-02-15T02:21:23;102427.66;;;1.78;88.12
59417;BME280;45222;52.458;20.914;2023-02-15T02:25:30;102420.55;;;1.82;88.49
59417;BME280;45222;52.458;20.914;2023-02-15T02:29:50;102419.63;;;1.88;88.49
59417;BME280;45222;52.458;20.914;2023-02-15T08:14:48;102364.95;;;2.20;90.04
59417;BME280;45222;52.458;20.914;2023-02-15T08:18:46;102364.02;;;2.18;89.68
59417;BME280;45222;52.458;20.914;2023-02-15T08:22:52;102359.41;;;2.15;89.72
59417;BME280;45222;52.458;20.914;2023-02-15T08:26:45;102366.04;;;2.12;89.70
59417;BME280;45222;52.458;20.914;2023-02-15T08:30:50;102364.33;;;2.14;89.71
59417;BME280;45222;52.458;20.914;2023-02-15T08:34:37;102364.41;;;2.19;89.91
59417;BME280;45222;52.458;20.914;2023-02-15T08:38:31;102357.01;;;2.27;89.86
59417;BME280;45222;52.458;20.914;2023-02-15T08:42:30;102349.20;;;2.33;89.60
59417;BME280;45222;52.458;20.914;2023-02-15T08:46:17;102347.11;;;2.35;89.33
59417;BME280;45222;52.458;20.914;2023-02-15T08:50:10;102341.83;;;2.34;89.38
59417;BME280;45222;52.458;20.914;2023-02-15T08:54:10;102339.02;;;2.33;88.99
59417;BME280;45222;52.458;20.914;2023-02-15T08:57:58;102337.08;;;2.32;89.04
59417;BME280;45222;52.458;20.914;2023-02-15T09:01:51;102333.75;;;2.33;89.25
59417;BME280;45222;52.458;20.914;2023-02-15T09:05:50;102332.60;;;2.37;89.28
59417;BME280;45222;52.458;20.914;2023-02-15T09:09:35;102327.61;;;2.44;89.25
59417;BME280;45222;52.458;20.914;2023-02-15T09:13:28;102331.71;;;2.48;89.22
59417;BME280;45222;52.458;20.914;2023-02-15T09:17:27;102331.25;;;2.51;89.11
59417;BME280;45222;52.458;20.914;2023-02-15T09:21:13;102329.45;;;2.49;88.87
59417;BME280;45222;52.458;20.914;2023-02-15T09:25:06;102324.63;;;2.44;88.57
59417;BME280;45222;52.458;20.914;2023-02-15T09:29:05;102325.52;;;2.45;88.84
59417;BME280;45222;52.458;20.914;2023-02-15T09:32:50;102324.95;;;2.53;88.98
59417;BME280;45222;52.458;20.914;2023-02-15T09:36:42;102323.05;;;2.65;88.89
59417;BME280;45222;52.458;20.914;2023-02-15T09:40:48;102320.81;;;2.69;88.45
59417;BME280;45222;52.458;20.914;2023-02-15T09:49:11;102319.12;;;2.61;88.14
59417;BME280;45222;52.458;20.914;2023-02-15T09:53:29;102315.64;;;2.64;88.20
59417;BME280;45222;52.458;20.914;2023-02-15T09:57:42;102311.33;;;2.69;88.40
59417;BME280;45222;52.458;20.914;2023-02-15T10:01:36;102311.65;;;2.78;88.36
59417;BME280;45222;52.458;20.914;2023-02-15T10:05:40;102310.88;;;2.74;87.84
59417;BME280;45222;52.458;20.914;2023-02-15T10:09:50;102304.02;;;2.74;87.79
59417;BME280;45222;52.458;20.914;2023-02-15T10:13:43;102308.08;;;2.76;87.63
59417;BME280;45222;52.458;20.914;2023-02-15T10:17:51;102304.39;;;2.75;87.63
59417;BME280;45222;52.458;20.914;2023-02-15T10:22:02;102295.50;;;2.80;87.86
59417;BME280;45222;52.458;20.914;2023-02-15T10:25:58;102291.88;;;2.85;87.73
59417;BME280;45222;52.458;20.914;2023-02-15T10:30:05;102293.67;;;2.87;87.60
59417;BME280;45222;52.458;20.914;2023-02-15T10:34:15;102288.83;;;2.80;87.44
59417;BME280;45222;52.458;20.914;2023-02-15T10:38:09;102285.54;;;2.71;87.54
59417;BME280;45222;52.458;20.914;2023-02-15T10:42:10;102285.66;;;2.67;87.58
59417;BME280;45222;52.458;20.914;2023-02-15T10:46:23;102279.97;;;2.75;87.81
59417;BME280;45222;52.458;20.914;2023-02-15T10:50:26;102279.74;;;2.85;87.99
59417;BME280;45222;52.458;20.914;2023-02-15T10:54:38;102278.22;;;2.88;87.96
59417;BME280;45222;52.458;20.914;2023-02-15T10:58:47;102272.04;;;2.99;88.06
59417;BME280;45222;52.458;20.914;2023-02-15T11:03:04;102264.04;;;3.06;87.46
59417;BME280;45222;52.458;20.914;2023-02-15T11:06:53;102258.77;;;2.92;86.92
59417;BME280;45222;52.458;20.914;2023-02-15T11:10:49;102255.17;;;2.73;87.09
59417;BME280;45222;52.458;20.914;2023-02-15T11:14:54;102252.11;;;2.56;87.12
59417;BME280;45222;52.458;20.914;2023-02-15T11:18:45;102250.94;;;2.48;87.51
59417;BME280;45222;52.458;20.914;2023-02-15T11:22:40;102252.27;;;2.54;87.67
59417;BME280;45222;52.458;20.914;2023-02-15T11:26:42;102251.55;;;2.55;87.65
59417;BME280;45222;52.458;20.914;2023-02-15T11:30:42;102252.38;;;2.50;87.51
59417;BME280;45222;52.458;20.914;2023-02-15T11:34:49;102245.67;;;2.49;87.42
59417;BME280;45222;52.458;20.914;2023-02-15T11:38:37;102244.22;;;2.45;87.33
59417;BME280;45222;52.458;20.914;2023-02-15T11:42:35;102243.96;;;2.40;87.57
59417;BME280;45222;52.458;20.914;2023-02-15T11:46:40;102248.95;;;2.45;87.57
59417;BME280;45222;52.458;20.914;2023-02-15T11:50:32;102250.94;;;2.48;87.49
59417;BME280;45222;52.458;20.914;2023-02-15T11:54:41;102249.61;;;2.42;87.08
59417;BME280;45222;52.458;20.914;2023-02-15T11:58:32;102244.42;;;2.35;87.22
59417;BME280;45222;52.458;20.914;2023-02-15T12:02:26;102241.11;;;2.37;87.30
59417;BME280;45222;52.458;20.914;2023-02-15T12:06:29;102230.48;;;2.42;87.43
59417;BME280;45222;52.458;20.914;2023-02-15T12:10:26;102225.48;;;2.49;87.57
59417;BME280;45222;52.458;20.914;2023-02-15T12:14:25;102219.47;;;2.58;87.58
59417;BME280;45222;52.458;20.914;2023-02-15T12:18:20;102216.30;;;2.57;87.28
59417;BME280;45222;52.458;20.914;2023-02-15T12:22:22;102212.29;;;2.48;87.23
59417;BME280;45222;52.458;20.914;2023-02-15T12:26:25;102210.42;;;2.39;87.33
59417;BME280;45222;52.458;20.914;2023-02-15T12:30:28;102207.98;;;2.41;87.72
59417;BME280;45222;52.458;20.914;2023-02-15T12:34:24;102203.05;;;2.52;87.79
59417;BME280;45222;52.458;20.914;2023-02-15T12:38:25;102194.22;;;2.61;87.47
59417;BME280;45222;52.458;20.914;2023-02-15T12:42:16;102185.98;;;2.63;87.60
59417;BME280;45222;52.458;20.914;2023-02-15T12:46:21;102181.48;;;2.67;87.33
59417;BME280;45222;52.458;20.914;2023-02-15T12:50:24;102179.00;;;2.66;87.00
59417;BME280;45222;52.458;20.914;2023-02-15T12:54:31;102176.52;;;2.64;86.95
59417;BME280;45222;52.458;20.914;2023-02-15T12:58:25;102174.05;;;2.62;87.08
59417;BME280;45222;52.458;20.914;2023-02-15T13:02:29;102170.27;;;2.71;87.37
59417;BME280;45222;52.458;20.914;2023-02-15T13:06:17;102165.95;;;2.76;87.18
59417;BME280;45222;52.458;20.914;2023-02-15T13:10:22;102164.22;;;2.78;87.06
59417;BME280;45222;52.458;20.914;2023-02-15T13:14:24;102165.02;;;2.84;86.86
59417;BME280;45222;52.458;20.914;2023-02-15T13:18:29;102156.98;;;2.89;86.70
59417;BME280;45222;52.458;20.914;2023-02-15T13:22:22;102154.88;;;2.90;86.39
59417;BME280;45222;52.458;20.914;2023-02-15T13:26:32;102142.94;;;2.90;86.28
59417;BME280;45222;52.458;20.914;2023-02-15T13:30:28;102140.80;;;2.88;86.19
59417;BME280;45222;52.458;20.914;2023-02-15T13:34:25;102136.94;;;2.89;86.55
59417;BME280;45222;52.458;20.914;2023-02-15T13:38:41;102132.71;;;2.88;86.21
59417;BME280;45222;52.458;20.914;2023-02-15T13:42:34;102126.70;;;2.85;86.18
59417;BME280;45222;52.458;20.914;2023-02-15T13:46:38;102129.73;;;2.89;86.22
59417;BME280;45222;52.458;20.914;2023-02-15T13:50:43;102127.33;;;2.93;86.43
59417;BME280;45222;52.458;20.914;2023-02-15T13:54:55;102125.84;;;3.01;86.43
59417;BME280;45222;52.458;20.914;2023-02-15T13:59:12;102123.48;;;3.11;86.48
59417;BME280;45222;52.458;20.914;2023-02-15T14:03:43;102120.73;;;3.16;85.99
59417;BME280;45222;52.458;20.914;2023-02-15T14:07:52;102117.38;;;3.17;86.04
59417;BME280;45222;52.458;20.914;2023-02-15T14:12:11;102116.66;;;3.14;85.69
59417;BME280;45222;52.458;20.914;2023-02-15T14:16:10;102109.44;;;3.13;85.71
59417;BME280;45222;52.458;20.914;2023-02-15T14:20:19;102110.34;;;3.14;86.10
59417;BME280;45222;52.458;20.914;2023-02-15T14:24:30;102104.54;;;3.16;86.04
59417;BME280;45222;52.458;20.914;2023-02-15T14:28:45;102110.36;;;3.18;86.16
59417;BME280;45222;52.458;20.914;2023-02-15T14:32:51;102103.71;;;3.20;86.07
59417;BME280;45222;52.458;20.914;2023-02-15T14:36:38;102103.69;;;3.18;86.07
59417;BME280;45222;52.458;20.914;2023-02-15T14:40:37;102106.48;;;3.16;85.85
59417;BME280;45222;52.458;20.914;2023-02-15T14:45:00;102100.84;;;3.13;85.94
59417;BME280;45222;52.458;20.914;2023-02-15T14:48:49;102093.98;;;3.15;86.12
59417;BME280;45222;52.458;20.914;2023-02-15T14:57:31;102091.05;;;3.20;86.07
59417;BME280;45222;52.458;20.914;2023-02-15T15:01:26;102078.02;;;3.19;85.95
59417;BME280;45222;52.458;20.914;2023-02-15T15:05:23;102071.33;;;3.16;86.13
59417;BME280;45222;52.458;20.914;2023-02-15T15:09:25;102071.48;;;3.14;85.98
59417;BME280;45222;52.458;20.914;2023-02-15T15:13:37;102065.64;;;3.12;86.05
59417;BME280;45222;52.458;20.914;2023-02-15T15:17:53;102067.60;;;3.14;86.02
59417;BME280;45222;52.458;20.914;2023-02-15T15:21:56;102064.27;;;3.14;86.15
59417;BME280;45222;52.458;20.914;2023-02-15T15:25:56;102065.17;;;3.18;86.32
59417;BME280;45222;52.458;20.914;2023-02-15T15:29:55;102055.85;;;3.16;85.89
59417;BME280;45222;52.458;20.914;2023-02-15T15:38:29;102048.57;;;3.07;85.88
59417;BME280;45222;52.458;20.914;2023-02-15T15:42:43;102052.36;;;3.00;85.86
59417;BME280;45222;52.458;20.914;2023-02-15T15:51:12;102050.45;;;2.86;85.97
59417;BME280;45222;52.458;20.914;2023-02-15T15:55:17;102047.93;;;2.80;86.16
59417;BME280;45222;52.458;20.914;2023-02-15T15:59:05;102045.83;;;2.79;86.36
59417;BME280;45222;52.458;20.914;2023-02-15T16:02:57;102044.43;;;2.81;86.28
59417;BME280;45222;52.458;20.914;2023-02-15T16:06:56;102042.14;;;2.81;86.17
59417;BME280;45222;52.458;20.914;2023-02-15T16:10:42;102042.84;;;2.79;86.41
59417;BME280;45222;52.458;20.914;2023-02-15T16:14:37;102041.10;;;2.83;86.63
59417;BME280;45222;52.458;20.914;2023-02-15T16:18:42;102041.85;;;2.86;86.63
59417;BME280;45222;52.458;20.914;2023-02-15T16:22:28;102038.16;;;2.87;86.36
59417;BME280;45222;52.458;20.914;2023-02-15T16:26:34;102034.55;;;2.77;85.78
59417;BME280;45222;52.458;20.914;2023-02-15T16:30:39;102027.23;;;2.67;86.00
59417;BME280;45222;52.458;20.914;2023-02-15T16:34:26;102022.61;;;2.60;86.18
59417;BME280;45222;52.458;20.914;2023-02-15T16:38:20;102019.43;;;2.60;86.58
59417;BME280;45222;52.458;20.914;2023-02-15T16:42:25;102018.25;;;2.64;86.64
59417;BME280;45222;52.458;20.914;2023-02-15T16:46:14;102013.52;;;2.65;86.54
59417;BME280;45222;52.458;20.914;2023-02-15T16:50:17;102011.36;;;2.60;86.41
59417;BME280;45222;52.458;20.914;2023-02-15T16:54:21;102006.04;;;2.55;86.40
59417;BME280;45222;52.458;20.914;2023-02-15T16:58:11;102005.14;;;2.53;86.34
59417;BME280;45222;52.458;20.914;2023-02-15T17:02:10;102008.11;;;2.52;86.54
59417;BME280;45222;52.458;20.914;2023-02-15T17:06:22;102004.92;;;2.51;86.75
59417;BME280;45222;52.458;20.914;2023-02-15T17:10:26;102003.02;;;2.52;86.87
59417;BME280;45222;52.458;20.914;2023-02-15T17:14:27;102001.14;;;2.58;86.83
59417;BME280;45222;52.458;20.914;2023-02-15T17:18:28;101988.17;;;2.60;86.51
59417;BME280;45222;52.458;20.914;2023-02-15T17:22:20;101984.84;;;2.59;86.39
59417;BME280;45222;52.458;20.914;2023-02-15T17:26:14;101986.89;;;2.54;86.33
59417;BME280;45222;52.458;20.914;2023-02-15T17:30:26;101986.11;;;2.47;86.23
59417;BME280;45222;52.458;20.914;2023-02-15T17:34:47;101980.06;;;2.41;86.51
59417;BME280;45222;52.458;20.914;2023-02-15T17:39:02;101971.37;;;2.33;86.33
59417;BME280;45222;52.458;20.914;2023-02-15T17:43:06;101969.89;;;2.26;86.30
59417;BME280;45222;52.458;20.914;2023-02-15T17:46:55;101965.67;;;2.25;86.64
59417;BME280;45222;52.458;20.914;2023-02-15T17:50:47;101961.68;;;2.29;86.68
59417;BME280;45222;52.458;20.914;2023-02-15T17:54:45;101954.70;;;2.33;86.87
59417;BME280;45222;52.458;20.914;2023-02-15T17:58:49;101950.15;;;2.35;86.99
59417;BME280;45222;52.458;20.914;2023-02-15T18:02:40;101948.25;;;2.38;87.19
59417;BME280;45222;52.458;20.914;2023-02-15T18:06:51;101946.52;;;2.39;86.61
59417;BME280;45222;52.458;20.914;2023-02-15T18:11:01;101943.80;;;2.32;86.50
59417;BME280;45222;52.458;20.914;2023-02-15T18:15:17;101934.45;;;2.28;86.60
59417;BME280;45222;52.458;20.914;2023-02-15T18:19:24;101944.00;;;2.19;86.55
59417;BME280;45222;52.458;20.914;2023-02-15T18:23:12;101945.66;;;2.10;86.73
59417;BME280;45222;52.458;20.914;2023-02-15T18:27:05;101941.02;;;2.04;86.67
59417;BME280;45222;52.458;20.914;2023-02-15T18:31:07;101940.61;;;1.99;86.36
59417;BME280;45222;52.458;20.914;2023-02-15T18:34:59;101935.99;;;1.94;86.34
59417;BME280;45222;52.458;20.914;2023-02-15T18:38:54;101927.84;;;1.87;86.45
59417;BME280;45222;52.458;20.914;2023-02-15T18:42:52;101926.38;;;1.83;86.67
59417;BME280;45222;52.458;20.914;2023-02-15T18:46:44;101928.67;;;1.84;86.70
59417;BME280;45222;52.458;20.914;2023-02-15T18:50:42;101921.30;;;1.83;86.84
59417;BME280;45222;52.458;20.914;2023-02-15T18:54:28;101920.77;;;1.82;86.66
59417;BME280;45222;52.458;20.914;2023-02-15T18:58:26;101923.36;;;1.80;86.56
59417;BME280;45222;52.458;20.914;2023-02-15T19:02:13;101919.30;;;1.79;86.70
59417;BME280;45222;52.458;20.914;2023-02-15T19:06:09;101921.83;;;1.83;86.77
59417;BME280;45222;52.458;20.914;2023-02-15T19:10:03;101922.91;;;1.86;86.86
59417;BME280;45222;52.458;20.914;2023-02-15T19:14:22;101916.27;;;1.90;86.84
59417;BME280;45222;52.458;20.914;2023-02-15T19:18:14;101917.89;;;1.92;86.76
59417;BME280;45222;52.458;20.914;2023-02-15T19:22:23;101917.36;;;1.91;86.40
59417;BME280;45222;52.458;20.914;2023-02-15T19:26:10;101908.33;;;1.83;86.42
59417;BME280;45222;52.458;20.914;2023-02-15T19:30:12;101905.12;;;1.80;86.74
59417;BME280;45222;52.458;20.914;2023-02-15T19:34:15;101903.96;;;1.85;86.98
59417;BME280;45222;52.458;20.914;2023-02-15T19:38:02;101897.66;;;1.87;86.93
59417;BME280;45222;52.458;20.914;2023-02-15T19:41:55;101891.34;;;1.87;87.14
59417;BME280;45222;52.458;20.914;2023-02-15T19:45:53;101888.42;;;1.92;86.98
59417;BME280;45222;52.458;20.914;2023-02-15T19:49:46;101890.70;;;1.92;86.56
59417;BME280;45222;52.458;20.914;2023-02-15T19:53:56;101889.45;;;1.90;86.47
59417;BME280;45222;52.458;20.914;2023-02-15T19:57:42;101887.20;;;1.92;86.70
59417;BME280;45222;52.458;20.914;2023-02-15T20:01:33;101885.30;;;1.96;86.39
59417;BME280;45222;52.458;20.914;2023-02-15T20:05:34;101892.77;;;1.90;86.43
59417;BME280;45222;52.458;20.914;2023-02-15T20:09:29;101891.29;;;1.82;86.50
59417;BME280;45222;52.458;20.914;2023-02-15T20:13:35;101887.84;;;1.74;86.38
59417;BME280;45222;52.458;20.914;2023-02-15T20:17:40;101878.48;;;1.69;86.56
59417;BME280;45222;52.458;20.914;2023-02-15T20:21:26;101871.48;;;1.70;86.53
59417;BME280;45222;52.458;20.914;2023-02-15T20:25:33;101865.83;;;1.66;86.68
59417;BME280;45222;52.458;20.914;2023-02-15T20:29:19;101867.73;;;1.64;86.75
59417;BME280;45222;52.458;20.914;2023-02-15T20:33:11;101863.73;;;1.66;86.85
59417;BME280;45222;52.458;20.914;2023-02-15T20:37:17;101866.39;;;1.69;86.60
59417;BME280;45222;52.458;20.914;2023-02-15T20:41:17;101858.61;;;1.63;86.35
59417;BME280;45222;52.458;20.914;2023-02-15T20:45:40;101855.77;;;1.60;86.79
59417;BME280;45222;52.458;20.914;2023-02-15T20:49:33;101853.23;;;1.67;86.94
59417;BME280;45222;52.458;20.914;2023-02-15T20:53:31;101850.69;;;1.76;87.16
59417;BME280;45222;52.458;20.914;2023-02-15T20:57:17;101849.34;;;1.81;86.74
59417;BME280;45222;52.458;20.914;2023-02-15T21:01:22;101844.10;;;1.82;86.50
59417;BME280;45222;52.458;20.914;2023-02-15T21:05:14;101845.85;;;1.82;86.67
59417;BME280;45222;52.458;20.914;2023-02-15T21:09:08;101840.05;;;1.80;86.26
59417;BME280;45222;52.458;20.914;2023-02-15T21:13:19;101834.95;;;1.79;86.50
59417;BME280;45222;52.458;20.914;2023-02-15T21:17:13;101831.30;;;1.82;86.55
59417;BME280;45222;52.458;20.914;2023-02-15T21:21:17;101833.31;;;1.91;86.79
59417;BME280;45222;52.458;20.914;2023-02-15T21:25:08;101828.50;;;2.00;86.72
59417;BME280;45222;52.458;20.914;2023-02-15T21:29:04;101816.95;;;2.02;86.53
59417;BME280;45222;52.458;20.914;2023-02-15T21:33:03;101809.92;;;2.03;86.44
59417;BME280;45222;52.458;20.914;2023-02-15T21:36:48;101813.73;;;1.98;85.99
59417;BME280;45222;52.458;20.914;2023-02-15T21:40:40;101807.55;;;1.93;86.06
59417;BME280;45222;52.458;20.914;2023-02-15T21:44:39;101807.15;;;1.88;85.97
59417;BME280;45222;52.458;20.914;2023-02-15T21:48:43;101799.41;;;1.86;86.03
59417;BME280;45222;52.458;20.914;2023-02-15T21:52:35;101798.37;;;1.87;86.00
59417;BME280;45222;52.458;20.914;2023-02-15T21:56:33;101789.87;;;1.80;85.83
59417;BME280;45222;52.458;20.914;2023-02-15T22:00:21;101784.99;;;1.66;85.37
59417;BME280;45222;52.458;20.914;2023-02-15T22:04:14;101769.41;;;1.52;85.27
59417;BME280;45222;52.458;20.914;2023-02-15T22:08:16;101766.54;;;1.32;85.01
59417;BME280;45222;52.458;20.914;2023-02-15T22:12:01;101755.38;;;1.21;85.29
59417;BME280;45222;52.458;20.914;2023-02-15T22:16:06;101741.04;;;1.10;85.40
59417;BME280;45222;52.458;20.914;2023-02-15T22:19:56;101737.17;;;0.96;85.21
59417;BME280;45222;52.458;20.914;2023-02-15T22:24:01;101740.15;;;0.82;85.14
59417;BME280;45222;52.458;20.914;2023-02-15T22:27:47;101739.83;;;0.72;85.15
59417;BME280;45222;52.458;20.914;2023-02-15T22:31:40;101732.25;;;0.56;85.03
59417;BME280;45222;52.458;20.914;2023-02-15T22:35:38;101737.75;;;0.38;84.99
59417;BME280;45222;52.458;20.914;2023-02-15T22:39:24;101740.83;;;0.23;84.94
59417;BME280;45222;52.458;20.914;2023-02-15T22:43:27;101737.20;;;0.03;85.04
59417;BME280;45222;52.458;20.914;2023-02-15T22:47:28;101733.94;;;-0.14;85.54
59417;BME280;45222;52.458;20.914;2023-02-15T22:51:18;101730.19;;;-0.18;85.85
59417;BME280;45222;52.458;20.914;2023-02-15T22:55:14;101728.27;;;-0.27;85.89
59417;BME280;45222;52.458;20.914;2023-02-15T22:59:16;101724.27;;;-0.35;85.82
59417;BME280;45222;52.458;20.914;2023-02-15T23:03:24;101717.83;;;-0.44;85.90
59417;BME280;45222;52.458;20.914;2023-02-15T23:07:14;101715.54;;;-0.55;85.82
59417;BME280;45222;52.458;20.914;2023-02-15T23:11:09;101708.53;;;-0.65;85.77
59417;BME280;45222;52.458;20.914;2023-02-15T23:15:10;101703.56;;;-0.69;85.88
59417;BME280;45222;52.458;20.914;2023-02-15T23:19:04;101695.88;;;-0.69;86.12
59417;BME280;45222;52.458;20.914;2023-02-15T23:23:03;101691.22;;;-0.75;86.11
59417;BME280;45222;52.458;20.914;2023-02-15T23:26:49;101692.05;;;-0.77;85.89
59417;BME280;45222;52.458;20.914;2023-02-15T23:30:41;101691.30;;;-0.88;85.65
59417;BME280;45222;52.458;20.914;2023-02-15T23:34:41;101689.67;;;-1.00;85.66
59417;BME280;45222;52.458;20.914;2023-02-15T23:38:28;101684.33;;;-1.14;85.50
59417;BME280;45222;52.458;20.914;2023-02-15T23:42:23;101676.80;;;-1.24;85.40
59417;BME280;45222;52.458;20.914;2023-02-15T23:46:26;101668.74;;;-1.33;85.42
59417;BME280;45222;52.458;20.914;2023-02-15T23:50:17;101665.98;;;-1.40;85.54
59417;BME280;45222;52.458;20.914;2023-02-15T23:54:10;101659.48;;;-1.43;85.93
59417;BME280;45222;52.458;20.914;2023-02-15T23:58:15;101651.05;;;-1.44;86.04
